createdAt,value
2018-06-03T00:00:35.851Z,1015.53
2018-06-03T00:01:35.877Z,1015.51
2018-06-03T00:02:35.704Z,1015.54
2018-06-03T00:05:17.753Z,1015.56
2018-06-03T00:06:17.783Z,1015.56
2018-06-03T00:07:17.599Z,1015.55
2018-06-03T00:08:17.630Z,1015.52
2018-06-03T00:09:17.433Z,1015.51
2018-06-03T00:11:59.749Z,1015.53
2018-06-03T00:12:59.733Z,1015.51
2018-06-03T00:13:59.599Z,1015.50
2018-06-03T00:14:59.622Z,1015.52
2018-06-03T00:15:59.432Z,1015.49
2018-06-03T00:16:59.434Z,1015.51
2018-06-03T00:17:59.298Z,1015.46
2018-06-03T00:20:41.266Z,1015.48
2018-06-03T00:21:41.235Z,1015.45
2018-06-03T00:22:41.100Z,1015.42
2018-06-03T00:23:41.068Z,1015.45
2018-06-03T00:24:40.946Z,1015.44
2018-06-03T00:25:40.955Z,1015.42
2018-06-03T00:26:40.784Z,1015.41
2018-06-03T00:29:22.789Z,1015.46
2018-06-03T00:32:04.757Z,1015.43
2018-06-03T00:34:46.770Z,1015.42
2018-06-03T00:35:46.756Z,1015.40
2018-06-03T00:36:46.646Z,1015.39
2018-06-03T00:37:46.553Z,1015.37
2018-06-03T00:38:46.457Z,1015.37
2018-06-03T00:39:46.495Z,1015.35
2018-06-03T00:40:46.282Z,1015.36
2018-06-03T00:41:46.273Z,1015.37
2018-06-03T00:42:46.129Z,1015.35
2018-06-03T00:43:46.212Z,1015.37
2018-06-03T00:44:45.971Z,1015.34
2018-06-03T00:45:45.987Z,1015.34
2018-06-03T00:46:45.813Z,1015.31
2018-06-03T00:47:45.806Z,1015.30
2018-06-03T00:48:45.689Z,1015.38
2018-06-03T00:49:45.626Z,1015.35
2018-06-03T00:50:45.499Z,1015.33
2018-06-03T00:51:45.555Z,1015.32
2018-06-03T00:52:45.356Z,1015.35
2018-06-03T00:53:45.368Z,1015.32
2018-06-03T00:54:45.197Z,1015.31
2018-06-03T00:55:45.240Z,1015.33
2018-06-03T00:56:45.043Z,1015.37
2018-06-03T00:57:45.045Z,1015.35
2018-06-03T00:58:44.899Z,1015.36
2018-06-03T00:59:44.863Z,1015.38
2018-06-03T01:00:44.721Z,1015.35
2018-06-03T01:01:44.767Z,1015.28
2018-06-03T01:02:44.564Z,1015.33
2018-06-03T01:03:44.572Z,1015.29
2018-06-03T01:04:44.441Z,1015.30
2018-06-03T01:05:44.386Z,1015.30
2018-06-03T01:06:44.256Z,1015.31
2018-06-03T01:09:26.300Z,1015.25
2018-06-03T01:10:27.248Z,1015.27
2018-06-03T01:11:26.111Z,1015.22
2018-06-03T01:12:26.096Z,1015.24
2018-06-03T01:13:25.948Z,1015.25
2018-06-03T01:14:25.913Z,1015.24
2018-06-03T01:15:25.815Z,1015.25
2018-06-03T01:16:25.819Z,1015.24
2018-06-03T01:17:25.635Z,1015.21
2018-06-03T01:18:25.628Z,1015.21
2018-06-03T01:19:25.496Z,1015.26
2018-06-03T01:20:25.477Z,1015.23
2018-06-03T01:21:25.330Z,1015.20
2018-06-03T01:22:25.345Z,1015.21
2018-06-03T01:23:25.171Z,1015.23
2018-06-03T01:24:25.162Z,1015.21
2018-06-03T01:25:25.008Z,1015.23
2018-06-03T01:26:25.011Z,1015.20
2018-06-03T01:27:24.858Z,1015.22
2018-06-03T01:30:06.797Z,1015.18
2018-06-03T01:31:06.811Z,1015.22
2018-06-03T01:32:06.611Z,1015.23
2018-06-03T01:33:06.579Z,1015.24
2018-06-03T01:34:06.464Z,1015.23
2018-06-03T01:35:06.493Z,1015.21
2018-06-03T01:36:06.409Z,1015.24
2018-06-03T01:38:48.280Z,1015.24
2018-06-03T01:39:48.296Z,1015.24
2018-06-03T01:40:48.117Z,1015.22
2018-06-03T01:41:48.149Z,1015.23
2018-06-03T01:42:47.962Z,1015.21
2018-06-03T01:45:19.854Z,1015.18
2018-06-03T01:45:20.362Z,1015.16
2018-06-03T01:46:20.425Z,1015.20
2018-06-03T01:47:20.203Z,1015.19
2018-06-03T01:48:20.202Z,1015.21
2018-06-03T01:49:20.061Z,1015.19
2018-06-03T01:50:20.008Z,1015.14
2018-06-03T01:51:19.891Z,1015.19
2018-06-03T01:52:19.958Z,1015.16
2018-06-03T01:53:19.741Z,1015.12
2018-06-03T01:56:01.783Z,1015.18
2018-06-03T01:57:01.753Z,1015.18
2018-06-03T01:58:01.624Z,1015.16
2018-06-03T01:59:01.658Z,1015.17
2018-06-03T02:00:01.478Z,1015.16
2018-06-03T02:01:01.399Z,1015.14
2018-06-03T02:02:01.340Z,1015.12
2018-06-03T02:03:01.373Z,1015.08
2018-06-03T02:04:01.147Z,1015.14
2018-06-03T02:05:01.164Z,1015.09
2018-06-03T02:06:00.994Z,1015.09
2018-06-03T02:07:00.999Z,1015.09
2018-06-03T02:08:00.834Z,1015.13
2018-06-03T02:09:00.807Z,1015.09
2018-06-03T02:10:00.677Z,1015.13
2018-06-03T02:11:00.684Z,1015.11
2018-06-03T02:12:00.642Z,1015.07
2018-06-03T02:13:00.525Z,1015.06
2018-06-03T02:14:00.371Z,1015.10
2018-06-03T02:15:21.859Z,1015.08
2018-06-03T02:16:00.207Z,1015.06
2018-06-03T02:17:03.524Z,1015.06
2018-06-03T02:18:00.047Z,1015.07
2018-06-03T02:19:00.028Z,1015.02
2018-06-03T02:19:59.906Z,1015.04
2018-06-03T02:20:59.931Z,1015.04
2018-06-03T02:21:59.738Z,1015.04
2018-06-03T02:22:59.787Z,1015.08
2018-06-03T02:23:59.583Z,1015.04
2018-06-03T02:24:59.586Z,1015.04
2018-06-03T02:25:59.423Z,1015.03
2018-06-03T02:28:41.288Z,1015.00
2018-06-03T02:29:41.285Z,1015.00
2018-06-03T02:30:41.129Z,1015.00
2018-06-03T02:31:41.175Z,1014.99
2018-06-03T02:32:40.979Z,1015.01
2018-06-03T02:33:40.976Z,1014.97
2018-06-03T02:34:40.839Z,1014.97
2018-06-03T02:35:40.789Z,1014.99
2018-06-03T02:36:40.668Z,1015.00
2018-06-03T02:37:40.737Z,1014.99
2018-06-03T02:38:40.527Z,1015.01
2018-06-03T02:39:40.498Z,1014.99
2018-06-03T02:40:40.348Z,1014.99
2018-06-03T02:41:40.324Z,1014.98
2018-06-03T02:42:40.198Z,1014.98
2018-06-03T02:43:41.281Z,1014.98
2018-06-03T02:44:40.032Z,1014.93
2018-06-03T02:47:22.305Z,1014.91
2018-06-03T02:48:24.209Z,1014.95
2018-06-03T02:49:22.155Z,1014.96
2018-06-03T02:50:24.348Z,1014.95
2018-06-03T02:51:21.994Z,1014.96
2018-06-03T02:54:07.800Z,1014.92
2018-06-03T02:55:08.893Z,1014.97
2018-06-03T02:56:07.641Z,1014.94
2018-06-03T02:58:49.816Z,1014.90
2018-06-03T02:59:49.750Z,1014.94
2018-06-03T03:00:49.659Z,1014.88
2018-06-03T03:01:49.657Z,1014.89
2018-06-03T03:02:49.480Z,1014.90
2018-06-03T03:03:49.500Z,1014.91
2018-06-03T03:04:49.326Z,1014.91
2018-06-03T03:05:49.279Z,1014.91
2018-06-03T03:06:49.169Z,1014.93
2018-06-03T03:09:31.318Z,1014.96
2018-06-03T03:10:31.323Z,1014.93
2018-06-03T03:11:31.134Z,1014.90
2018-06-03T03:12:31.101Z,1014.91
2018-06-03T03:13:31.007Z,1014.90
2018-06-03T03:14:31.002Z,1014.95
2018-06-03T03:15:30.818Z,1014.91
2018-06-03T03:16:30.842Z,1014.91
2018-06-03T03:17:30.668Z,1014.94
2018-06-03T03:18:30.662Z,1014.95
2018-06-03T03:19:30.516Z,1014.88
2018-06-03T03:20:30.541Z,1014.91
2018-06-03T03:21:30.352Z,1014.87
2018-06-03T03:24:12.334Z,1014.90
2018-06-03T03:26:54.297Z,1014.89
2018-06-03T03:29:36.424Z,1014.92
2018-06-03T03:30:36.332Z,1014.94
2018-06-03T03:31:36.162Z,1014.93
2018-06-03T03:32:36.143Z,1014.94
2018-06-03T03:33:39.454Z,1014.94
2018-06-03T03:36:20.939Z,1014.95
2018-06-03T03:37:17.844Z,1015.00
2018-06-03T03:38:17.648Z,1015.04
2018-06-03T03:39:17.662Z,1014.99
2018-06-03T03:40:17.492Z,1015.01
2018-06-03T03:41:17.490Z,1015.02
2018-06-03T03:42:17.329Z,1014.98
2018-06-03T03:43:17.382Z,1015.01
2018-06-03T03:44:20.443Z,1015.02
2018-06-03T03:45:28.884Z,1015.00
2018-06-03T03:46:17.015Z,1015.01
2018-06-03T03:47:16.990Z,1014.99
2018-06-03T03:48:16.860Z,1014.96
2018-06-03T03:49:16.841Z,1014.95
2018-06-03T03:50:16.698Z,1014.93
2018-06-03T03:51:17.780Z,1014.93
2018-06-03T03:52:16.541Z,1014.93
2018-06-03T03:53:16.519Z,1014.92
2018-06-03T03:54:16.415Z,1014.92
2018-06-03T03:55:16.439Z,1014.98
2018-06-03T03:56:16.234Z,1014.96
2018-06-03T03:57:16.280Z,1014.96
2018-06-03T03:58:16.081Z,1014.96
2018-06-03T03:59:16.047Z,1014.96
2018-06-03T04:00:15.920Z,1014.95
2018-06-03T04:01:15.956Z,1014.98
2018-06-03T04:02:15.803Z,1015.01
2018-06-03T04:03:15.775Z,1015.02
2018-06-03T04:04:15.598Z,1015.00
2018-06-03T04:05:15.580Z,1015.02
2018-06-03T04:06:15.447Z,1015.05
2018-06-03T04:07:15.424Z,1015.05
2018-06-03T04:08:15.287Z,1015.07
2018-06-03T04:09:15.291Z,1015.02
2018-06-03T04:10:15.145Z,1015.05
2018-06-03T04:11:15.104Z,1015.04
2018-06-03T04:12:18.452Z,1015.04
2018-06-03T04:13:15.010Z,1015.04
2018-06-03T04:14:14.809Z,1015.04
2018-06-03T04:15:14.820Z,1014.98
2018-06-03T04:16:14.657Z,1015.00
2018-06-03T04:17:14.631Z,1015.01
2018-06-03T04:18:14.531Z,1015.04
2018-06-03T04:19:14.539Z,1015.03
2018-06-03T04:20:14.337Z,1015.03
2018-06-03T04:21:14.346Z,1015.02
2018-06-03T04:22:14.190Z,1014.98
2018-06-03T04:23:14.185Z,1015.02
2018-06-03T04:24:14.030Z,1014.99
2018-06-03T04:25:14.072Z,1014.98
2018-06-03T04:26:13.875Z,1015.00
2018-06-03T04:27:13.872Z,1014.98
2018-06-03T04:28:13.730Z,1014.99
2018-06-03T04:29:13.682Z,1014.98
2018-06-03T04:30:13.569Z,1014.99
2018-06-03T04:32:58.957Z,1014.97
2018-06-03T04:33:55.805Z,1014.96
2018-06-03T04:34:55.656Z,1015.00
2018-06-03T04:35:55.709Z,1014.99
2018-06-03T04:36:55.503Z,1015.00
2018-06-03T04:37:55.551Z,1015.01
2018-06-03T04:38:55.351Z,1014.96
2018-06-03T04:41:37.325Z,1015.03
2018-06-03T04:44:19.343Z,1015.07
2018-06-03T04:45:19.322Z,1015.04
2018-06-03T04:46:19.179Z,1015.06
2018-06-03T04:47:19.133Z,1015.04
2018-06-03T04:48:19.038Z,1015.07
2018-06-03T04:49:19.041Z,1015.07
2018-06-03T04:50:18.848Z,1015.08
2018-06-03T04:51:18.850Z,1015.09
2018-06-03T04:52:21.964Z,1015.08
2018-06-03T04:53:18.665Z,1015.08
2018-06-03T04:54:18.536Z,1015.10
2018-06-03T04:57:00.860Z,1015.17
2018-06-03T04:58:00.867Z,1015.18
2018-06-03T04:59:00.670Z,1015.18
2018-06-03T05:00:00.680Z,1015.19
2018-06-03T05:01:00.514Z,1015.16
2018-06-03T05:02:01.550Z,1015.19
2018-06-03T05:03:00.378Z,1015.21
2018-06-03T05:05:42.340Z,1015.23
2018-06-03T05:08:24.353Z,1015.25
2018-06-03T05:09:24.297Z,1015.24
2018-06-03T05:10:24.182Z,1015.28
2018-06-03T05:11:24.203Z,1015.28
2018-06-03T05:12:24.022Z,1015.29
2018-06-03T05:13:24.042Z,1015.27
2018-06-03T05:14:23.861Z,1015.30
2018-06-03T05:15:35.914Z,1015.27
2018-06-03T05:16:23.740Z,1015.31
2018-06-03T05:17:23.724Z,1015.30
2018-06-03T05:18:23.585Z,1015.29
2018-06-03T05:19:23.543Z,1015.28
2018-06-03T05:20:23.397Z,1015.31
2018-06-03T05:21:23.360Z,1015.33
2018-06-03T05:22:23.230Z,1015.31
2018-06-03T05:23:23.340Z,1015.31
2018-06-03T05:24:23.077Z,1015.31
2018-06-03T05:25:23.075Z,1015.36
2018-06-03T05:26:22.932Z,1015.33
2018-06-03T05:27:22.885Z,1015.40
2018-06-03T05:28:22.784Z,1015.43
2018-06-03T05:29:22.791Z,1015.44
2018-06-03T05:30:22.601Z,1015.45
2018-06-03T05:31:22.632Z,1015.49
2018-06-03T05:32:22.448Z,1015.48
2018-06-03T05:33:22.437Z,1015.46
2018-06-03T05:34:22.291Z,1015.50
2018-06-03T05:35:22.315Z,1015.52
2018-06-03T05:36:22.138Z,1015.56
2018-06-03T05:37:22.138Z,1015.56
2018-06-03T05:38:22.011Z,1015.55
2018-06-03T05:39:21.970Z,1015.58
2018-06-03T05:40:21.832Z,1015.56
2018-06-03T05:41:21.850Z,1015.57
2018-06-03T05:42:21.668Z,1015.54
2018-06-03T05:43:21.686Z,1015.54
2018-06-03T05:44:21.541Z,1015.52
2018-06-03T05:45:38.423Z,1015.57
2018-06-03T05:46:21.363Z,1015.50
2018-06-03T05:47:21.418Z,1015.55
2018-06-03T05:48:24.598Z,1015.55
2018-06-03T05:49:22.239Z,1015.58
2018-06-03T05:50:21.060Z,1015.55
2018-06-03T05:51:21.088Z,1015.55
2018-06-03T05:52:20.893Z,1015.57
2018-06-03T05:53:20.925Z,1015.55
2018-06-03T05:54:24.142Z,1015.54
2018-06-03T05:55:20.701Z,1015.53
2018-06-03T05:56:20.583Z,1015.50
2018-06-03T05:57:20.618Z,1015.52
2018-06-03T05:58:20.432Z,1015.56
2018-06-03T06:01:02.368Z,1015.58
2018-06-03T06:02:02.319Z,1015.59
2018-06-03T06:03:02.194Z,1015.63
2018-06-03T06:04:02.155Z,1015.63
2018-06-03T06:05:02.045Z,1015.68
2018-06-03T06:07:44.353Z,1015.70
2018-06-03T06:10:26.378Z,1015.73
2018-06-03T06:11:26.344Z,1015.73
2018-06-03T06:12:26.208Z,1015.76
2018-06-03T06:13:26.150Z,1015.78
2018-06-03T06:14:26.082Z,1015.83
2018-06-03T06:15:26.063Z,1015.82
2018-06-03T06:16:25.897Z,1015.88
2018-06-03T06:17:25.866Z,1015.87
2018-06-03T06:18:25.755Z,1015.84
2018-06-03T06:19:25.821Z,1015.87
2018-06-03T06:20:25.588Z,1015.88
2018-06-03T06:21:25.594Z,1015.92
2018-06-03T06:22:25.436Z,1015.88
2018-06-03T06:23:25.394Z,1015.86
2018-06-03T06:24:25.312Z,1015.86
2018-06-03T06:25:25.302Z,1015.89
2018-06-03T06:26:25.140Z,1015.85
2018-06-03T06:27:25.202Z,1015.86
2018-06-03T06:28:24.983Z,1015.89
2018-06-03T06:29:25.051Z,1015.91
2018-06-03T06:30:24.838Z,1015.89
2018-06-03T06:33:06.872Z,1015.86
2018-06-03T06:34:06.831Z,1015.82
2018-06-03T06:35:06.718Z,1015.87
2018-06-03T06:36:06.735Z,1015.90
2018-06-03T06:37:06.570Z,1015.89
2018-06-03T06:38:06.549Z,1015.89
2018-06-03T06:39:06.440Z,1015.93
2018-06-03T06:40:06.390Z,1015.89
2018-06-03T06:41:06.251Z,1015.90
2018-06-03T06:42:06.290Z,1015.91
2018-06-03T06:43:06.133Z,1015.94
2018-06-03T06:44:06.075Z,1015.99
2018-06-03T06:45:05.964Z,1016.02
2018-06-03T06:46:05.996Z,1016.03
2018-06-03T06:47:05.795Z,1016.10
2018-06-03T06:48:05.803Z,1016.14
2018-06-03T06:49:05.643Z,1016.13
2018-06-03T06:50:06.020Z,1016.05
2018-06-03T06:51:05.507Z,1016.11
2018-06-03T06:52:05.520Z,1016.09
2018-06-03T06:53:05.353Z,1016.08
2018-06-03T06:54:05.328Z,1016.03
2018-06-03T06:55:05.241Z,1016.04
2018-06-03T06:56:05.239Z,1016.04
2018-06-03T06:57:05.048Z,1016.09
2018-06-03T06:59:46.863Z,1016.08
2018-06-03T07:00:48.916Z,1016.08
2018-06-03T07:01:46.734Z,1016.14
2018-06-03T07:02:46.760Z,1016.15
2018-06-03T07:03:46.583Z,1016.15
2018-06-03T07:04:46.565Z,1016.15
2018-06-03T07:05:46.468Z,1016.13
2018-06-03T07:06:46.489Z,1016.11
2018-06-03T07:07:46.288Z,1016.18
2018-06-03T07:08:46.282Z,1016.09
2018-06-03T07:09:46.125Z,1016.06
2018-06-03T07:10:46.182Z,1016.09
2018-06-03T07:11:45.998Z,1016.06
2018-06-03T07:12:47.967Z,1016.07
2018-06-03T07:13:45.842Z,1016.07
2018-06-03T07:14:45.809Z,1016.07
2018-06-03T07:15:45.694Z,1016.03
2018-06-03T07:16:46.706Z,1016.00
2018-06-03T07:17:45.538Z,1016.00
2018-06-03T07:18:45.533Z,1016.02
2018-06-03T07:19:45.399Z,1016.00
2018-06-03T07:20:45.542Z,1015.99
2018-06-03T07:21:45.298Z,1015.98
2018-06-03T07:22:45.664Z,1016.00
2018-06-03T07:23:45.118Z,1015.98
2018-06-03T07:24:45.876Z,1015.97
2018-06-03T07:25:44.979Z,1015.94
2018-06-03T07:26:45.016Z,1015.94
2018-06-03T07:27:44.798Z,1015.91
2018-06-03T07:30:26.896Z,1015.87
2018-06-03T07:31:26.926Z,1015.89
2018-06-03T07:32:26.742Z,1015.92
2018-06-03T07:33:26.801Z,1015.89
2018-06-03T07:34:26.584Z,1015.88
2018-06-03T07:37:12.912Z,1015.93
2018-06-03T07:38:12.909Z,1015.90
2018-06-03T07:39:12.740Z,1015.95
2018-06-03T07:41:54.912Z,1015.97
2018-06-03T07:42:54.928Z,1015.93
2018-06-03T07:43:54.735Z,1015.95
2018-06-03T07:45:45.485Z,1015.98
2018-06-03T07:45:54.628Z,1015.96
2018-06-03T07:46:54.536Z,1015.97
2018-06-03T07:49:36.394Z,1015.96
2018-06-03T07:50:36.433Z,1015.95
2018-06-03T07:51:36.242Z,1015.96
2018-06-03T07:52:36.271Z,1015.96
2018-06-03T07:53:36.107Z,1016.00
2018-06-03T07:56:18.391Z,1016.00
2018-06-03T07:57:19.445Z,1016.00
2018-06-03T07:58:18.239Z,1016.02
2018-06-03T07:59:18.256Z,1016.03
2018-06-03T08:00:18.088Z,1016.03
2018-06-03T08:03:00.479Z,1016.08
2018-06-03T08:04:00.386Z,1016.07
2018-06-03T08:05:00.238Z,1016.04
2018-06-03T08:06:00.324Z,1016.23
2018-06-03T08:07:00.115Z,1016.21
2018-06-03T08:08:01.157Z,1016.41
2018-06-03T08:08:59.954Z,1016.24
2018-06-03T08:09:59.901Z,1016.37
2018-06-03T08:10:59.798Z,1016.58
2018-06-03T08:11:59.810Z,1016.70
2018-06-03T08:12:59.727Z,1016.72
2018-06-03T08:13:59.616Z,1016.63
2018-06-03T08:14:59.494Z,1016.57
2018-06-03T08:15:59.519Z,1016.50
2018-06-03T08:16:59.346Z,1016.14
2018-06-03T08:17:59.368Z,1016.19
2018-06-03T08:18:59.217Z,1016.16
2018-06-03T08:19:59.251Z,1016.09
2018-06-03T08:20:59.065Z,1016.06
2018-06-03T08:21:59.053Z,1016.01
2018-06-03T08:22:58.929Z,1016.05
2018-06-03T08:23:59.001Z,1016.01
2018-06-03T08:24:58.784Z,1015.99
2018-06-03T08:25:58.771Z,1015.98
2018-06-03T08:26:58.639Z,1015.99
2018-06-03T08:29:40.927Z,1016.26
2018-06-03T08:32:22.916Z,1015.97
2018-06-03T08:33:22.928Z,1015.99
2018-06-03T08:34:22.764Z,1015.88
2018-06-03T08:35:22.784Z,1015.89
2018-06-03T08:36:22.620Z,1015.96
2018-06-03T08:37:22.592Z,1015.95
2018-06-03T08:38:22.496Z,1015.94
2018-06-03T08:39:22.518Z,1015.93
2018-06-03T08:40:22.331Z,1015.90
2018-06-03T08:41:22.337Z,1015.90
2018-06-03T08:42:22.186Z,1015.86
2018-06-03T08:43:23.177Z,1015.88
2018-06-03T08:44:22.052Z,1015.84
2018-06-03T08:45:22.040Z,1015.85
2018-06-03T08:46:21.915Z,1015.88
2018-06-03T08:47:21.946Z,1015.90
2018-06-03T08:48:21.779Z,1015.88
2018-06-03T08:49:21.751Z,1015.86
2018-06-03T08:50:21.604Z,1015.93
2018-06-03T08:51:21.567Z,1015.89
2018-06-03T08:52:21.464Z,1015.92
2018-06-03T08:53:21.522Z,1015.90
2018-06-03T08:54:21.326Z,1015.87
2018-06-03T08:55:21.282Z,1015.91
2018-06-03T08:56:21.180Z,1015.85
2018-06-03T08:57:21.196Z,1015.88
2018-06-03T08:58:21.050Z,1015.87
2018-06-03T08:59:21.044Z,1015.83
2018-06-03T09:00:20.873Z,1015.85
2018-06-03T09:01:20.919Z,1015.86
2018-06-03T09:02:20.725Z,1015.84
2018-06-03T09:03:20.750Z,1015.82
2018-06-03T09:04:20.588Z,1015.81
2018-06-03T09:05:20.678Z,1015.84
2018-06-03T09:06:20.444Z,1015.78
2018-06-03T09:07:20.449Z,1015.78
2018-06-03T09:08:20.403Z,1015.81
2018-06-03T09:09:20.294Z,1015.78
2018-06-03T09:10:20.153Z,1015.82
2018-06-03T09:13:02.469Z,1015.84
2018-06-03T09:14:03.427Z,1015.84
2018-06-03T09:15:02.280Z,1015.82
2018-06-03T09:16:02.270Z,1015.84
2018-06-03T09:17:02.123Z,1015.84
2018-06-03T09:18:02.081Z,1015.85
2018-06-03T09:19:02.119Z,1015.80
2018-06-03T09:20:02.010Z,1015.80
2018-06-03T09:21:01.817Z,1015.79
2018-06-03T09:23:43.919Z,1015.82
2018-06-03T09:24:43.953Z,1015.78
2018-06-03T09:25:43.790Z,1015.74
2018-06-03T09:26:43.804Z,1015.76
2018-06-03T09:27:43.619Z,1015.74
2018-06-03T09:28:43.613Z,1015.75
2018-06-03T09:29:43.542Z,1015.73
2018-06-03T09:32:25.755Z,1015.74
2018-06-03T09:33:25.483Z,1015.74
2018-06-03T09:34:25.440Z,1015.77
2018-06-03T09:35:25.481Z,1015.77
2018-06-03T09:36:25.164Z,1015.77
2018-06-03T09:39:07.431Z,1015.79
2018-06-03T09:40:07.574Z,1015.77
2018-06-03T09:41:07.278Z,1015.76
2018-06-03T09:42:07.367Z,1015.73
2018-06-03T09:43:07.193Z,1015.73
2018-06-03T09:44:07.177Z,1015.73
2018-06-03T09:45:06.993Z,1015.72
2018-06-03T09:46:06.973Z,1015.73
2018-06-03T09:47:06.823Z,1015.73
2018-06-03T09:48:06.827Z,1015.73
2018-06-03T09:49:06.669Z,1015.73
2018-06-03T09:50:06.739Z,1015.71
2018-06-03T09:51:06.525Z,1015.70
2018-06-03T09:52:06.514Z,1015.69
2018-06-03T09:53:06.400Z,1015.69
2018-06-03T09:55:48.481Z,1015.63
2018-06-03T09:56:48.413Z,1015.62
2018-06-03T09:57:48.295Z,1015.65
2018-06-03T09:58:48.324Z,1015.59
2018-06-03T09:59:48.141Z,1015.55
2018-06-03T10:00:49.195Z,1015.59
2018-06-03T10:01:47.996Z,1015.60
2018-06-03T10:02:47.944Z,1015.62
2018-06-03T10:03:47.851Z,1015.60
2018-06-03T10:06:29.960Z,1015.63
2018-06-03T10:07:29.948Z,1015.63
2018-06-03T10:08:29.791Z,1015.66
2018-06-03T10:11:11.999Z,1015.63
2018-06-03T10:12:11.972Z,1015.64
2018-06-03T10:13:11.801Z,1015.64
2018-06-03T10:14:11.782Z,1015.67
2018-06-03T10:15:11.634Z,1015.68
2018-06-03T10:16:11.732Z,1015.68
2018-06-03T10:17:11.534Z,1015.71
2018-06-03T10:18:11.484Z,1015.68
2018-06-03T10:19:11.347Z,1015.71
2018-06-03T10:21:53.464Z,1015.71
2018-06-03T10:24:39.442Z,1015.73
2018-06-03T10:25:39.486Z,1015.77
2018-06-03T10:26:39.334Z,1015.76
2018-06-03T10:27:39.304Z,1015.73
2018-06-03T10:28:39.157Z,1015.78
2018-06-03T10:29:39.116Z,1015.80
2018-06-03T10:30:39.003Z,1015.69
2018-06-03T10:31:39.046Z,1015.73
2018-06-03T10:32:38.937Z,1015.77
2018-06-03T10:33:38.870Z,1015.65
2018-06-03T10:34:38.712Z,1015.66
2018-06-03T10:35:38.742Z,1015.74
2018-06-03T10:36:38.560Z,1015.69
2018-06-03T10:37:38.583Z,1015.74
2018-06-03T10:38:38.410Z,1015.83
2018-06-03T10:39:38.461Z,1015.81
2018-06-03T10:40:38.253Z,1015.76
2018-06-03T10:41:38.271Z,1015.85
2018-06-03T10:42:38.153Z,1016.03
2018-06-03T10:45:19.950Z,1015.74
2018-06-03T10:46:19.987Z,1015.75
2018-06-03T10:47:19.817Z,1015.78
2018-06-03T10:48:19.807Z,1015.71
2018-06-03T10:49:19.672Z,1015.71
2018-06-03T10:50:19.696Z,1015.70
2018-06-03T10:51:19.557Z,1015.72
2018-06-03T10:52:19.570Z,1015.74
2018-06-03T10:53:19.674Z,1015.72
2018-06-03T10:54:19.408Z,1015.73
2018-06-03T10:55:19.240Z,1015.83
2018-06-03T10:58:01.491Z,1016.17
2018-06-03T10:59:01.409Z,1015.91
2018-06-03T11:00:01.320Z,1015.88
2018-06-03T11:01:01.350Z,1015.91
2018-06-03T11:02:01.212Z,1015.78
2018-06-03T11:03:01.185Z,1015.72
2018-06-03T11:04:01.159Z,1015.70
2018-06-03T11:05:01.043Z,1015.68
2018-06-03T11:06:00.965Z,1015.68
2018-06-03T11:07:01.071Z,1015.71
2018-06-03T11:08:00.773Z,1015.81
2018-06-03T11:09:02.251Z,1015.89
2018-06-03T11:10:00.637Z,1015.83
2018-06-03T11:11:00.623Z,1015.85
2018-06-03T11:12:00.536Z,1015.98
2018-06-03T11:13:00.474Z,1015.98
2018-06-03T11:14:00.385Z,1016.04
2018-06-03T11:15:02.756Z,1016.01
2018-06-03T11:16:03.085Z,1015.60
2018-06-03T11:18:42.492Z,1015.54
2018-06-03T11:19:42.529Z,1015.53
2018-06-03T11:20:42.344Z,1015.47
2018-06-03T11:23:24.472Z,1015.83
2018-06-03T11:24:24.421Z,1015.69
2018-06-03T11:25:24.328Z,1015.71
2018-06-03T11:26:24.334Z,1015.43
2018-06-03T11:27:24.222Z,1015.46
2018-06-03T11:28:24.246Z,1015.85
2018-06-03T11:29:24.093Z,1015.77
2018-06-03T11:32:05.964Z,1015.36
2018-06-03T11:33:05.918Z,1015.32
2018-06-03T11:34:05.854Z,1015.34
2018-06-03T11:36:47.999Z,1015.35
2018-06-03T11:37:47.928Z,1015.37
2018-06-03T11:38:47.899Z,1015.39
2018-06-03T11:39:47.912Z,1015.32
2018-06-03T11:40:47.707Z,1015.38
2018-06-03T11:41:47.651Z,1015.29
2018-06-03T11:42:47.574Z,1015.31
2018-06-03T11:45:29.549Z,1015.32
2018-06-03T11:46:29.488Z,1015.30
2018-06-03T11:47:29.341Z,1015.30
2018-06-03T11:50:11.576Z,1015.29
2018-06-03T11:51:11.848Z,1015.30
2018-06-03T11:52:11.381Z,1015.24
2018-06-03T11:53:11.289Z,1015.27
2018-06-03T11:54:11.225Z,1015.22
2018-06-03T11:55:11.554Z,1015.17
2018-06-03T11:56:11.085Z,1015.15
2018-06-03T11:58:52.985Z,1015.14
2018-06-03T11:59:53.001Z,1015.13
2018-06-03T12:00:52.839Z,1015.13
2018-06-03T12:01:52.818Z,1015.13
2018-06-03T12:02:52.711Z,1015.15
2018-06-03T12:03:52.647Z,1015.13
2018-06-03T12:04:52.574Z,1015.14
2018-06-03T12:07:34.487Z,1015.12
2018-06-03T12:08:34.430Z,1015.14
2018-06-03T12:09:34.339Z,1015.13
2018-06-03T12:10:34.323Z,1015.12
2018-06-03T12:11:34.190Z,1015.08
2018-06-03T12:12:34.127Z,1015.09
2018-06-03T12:13:34.055Z,1015.09
2018-06-03T12:14:34.006Z,1015.09
2018-06-03T12:15:33.972Z,1015.09
2018-06-03T12:16:33.835Z,1015.09
2018-06-03T12:17:33.761Z,1015.11
2018-06-03T12:18:33.705Z,1015.09
2018-06-03T12:19:33.624Z,1015.11
2018-06-03T12:20:33.555Z,1015.06
2018-06-03T12:21:33.508Z,1015.08
2018-06-03T12:22:33.411Z,1015.13
2018-06-03T12:23:33.337Z,1015.13
2018-06-03T12:24:33.269Z,1015.12
2018-06-03T12:25:33.185Z,1015.11
2018-06-03T12:26:33.132Z,1015.07
2018-06-03T12:27:33.041Z,1015.07
2018-06-03T12:30:15.032Z,1015.08
2018-06-03T12:31:15.943Z,1015.10
2018-06-03T12:32:14.954Z,1015.05
2018-06-03T12:33:14.805Z,1015.03
2018-06-03T12:34:14.758Z,1015.06
2018-06-03T12:35:14.627Z,1015.06
2018-06-03T12:36:14.615Z,1015.08
2018-06-03T12:37:14.500Z,1015.07
2018-06-03T12:38:14.418Z,1015.01
2018-06-03T12:39:14.347Z,1015.01
2018-06-03T12:40:14.265Z,1015.04
2018-06-03T12:41:14.226Z,1015.01
2018-06-03T12:42:14.122Z,1015.02
2018-06-03T12:44:56.013Z,1015.02
2018-06-03T12:45:55.946Z,1015.00
2018-06-03T12:46:55.879Z,1014.97
2018-06-03T12:47:55.783Z,1015.01
2018-06-03T12:48:55.722Z,1014.94
2018-06-03T12:49:55.638Z,1014.97
2018-06-03T12:50:55.573Z,1014.95
2018-06-03T12:51:56.520Z,1014.93
2018-06-03T12:52:55.433Z,1014.90
2018-06-03T12:53:55.358Z,1014.95
2018-06-03T12:54:55.268Z,1014.93
2018-06-03T12:55:55.216Z,1014.91
2018-06-03T12:56:55.151Z,1014.88
2018-06-03T12:57:55.070Z,1014.90
2018-06-03T12:58:54.999Z,1014.92
2018-06-03T12:59:54.918Z,1014.87
2018-06-03T13:00:54.841Z,1014.84
2018-06-03T13:01:55.798Z,1014.86
2018-06-03T13:02:54.693Z,1014.86
2018-06-03T13:03:54.628Z,1014.86
2018-06-03T13:04:54.544Z,1014.84
2018-06-03T13:05:54.489Z,1014.87
2018-06-03T13:06:54.433Z,1014.84
2018-06-03T13:07:54.348Z,1014.85
2018-06-03T13:08:54.269Z,1014.89
2018-06-03T13:09:54.198Z,1014.88
2018-06-03T13:10:54.128Z,1014.85
2018-06-03T13:11:54.132Z,1014.83
2018-06-03T13:12:54.047Z,1014.86
2018-06-03T13:13:53.915Z,1014.85
2018-06-03T13:14:53.845Z,1014.84
2018-06-03T13:17:36.027Z,1014.84
2018-06-03T13:18:35.946Z,1014.82
2018-06-03T13:19:35.867Z,1014.84
2018-06-03T13:20:35.819Z,1014.82
2018-06-03T13:21:35.734Z,1014.79
2018-06-03T13:22:35.686Z,1014.81
2018-06-03T13:23:35.583Z,1014.82
2018-06-03T13:24:35.530Z,1014.78
2018-06-03T13:25:35.442Z,1014.81
2018-06-03T13:28:17.533Z,1014.75
2018-06-03T13:29:17.457Z,1014.69
2018-06-03T13:30:17.363Z,1014.70
2018-06-03T13:32:59.556Z,1014.66
2018-06-03T13:33:59.491Z,1014.67
2018-06-03T13:34:59.374Z,1014.61
2018-06-03T13:35:59.398Z,1014.64
2018-06-03T13:36:59.232Z,1014.61
2018-06-03T13:37:59.233Z,1014.54
2018-06-03T13:38:59.086Z,1014.63
2018-06-03T13:39:59.117Z,1014.59
2018-06-03T13:40:58.953Z,1014.59
2018-06-03T13:41:58.931Z,1014.51
2018-06-03T13:42:58.881Z,1014.51
2018-06-03T13:43:58.864Z,1014.48
2018-06-03T13:44:58.649Z,1014.48
2018-06-03T13:47:40.513Z,1014.45
2018-06-03T13:48:40.593Z,1014.46
2018-06-03T13:49:40.386Z,1014.41
2018-06-03T13:50:40.351Z,1014.36
2018-06-03T13:51:40.240Z,1014.36
2018-06-03T13:52:40.256Z,1014.34